Aérodrome :
LOGIN :

S'inscrire | Disclaimer

   EN    FR    IT 

 










Légende :    VFR   VFR Marginal   IFR   IFR Intensif   IFR Très Intensif
Visi : 
Plafond : 
>= 8 km
>= 3000ft
5 à 8 km
1000 à 3000 ft
1500m à 5 km
500 à 1000 ft
800 à 1500m
200 à 500 ft
< 800m
< 200 ft
Symboles :   Orages  Brouillard  Fortes neiges  Fortes précipitations  Vent > 20 kt
SIGMETs :   Divers  Orages  Givrage  Turbulence  Onde Orograph.  Cendres Volcan.







- Altitude de l'aérodrome : 288 ft
- Code IATA : BZZ


EGVN - RAF Brize Norton

DERNIER METAR :
  • 162320Z 21010KT 9999 BKN032 14/10 Q1016 NOSIG RMK BLU BLU

METARs EXPIRÉS :
  • 162250Z 21011KT 9999 FEW022 BKN032 14/11 Q1017 NOSIG
  • 162220Z 21009KT 9999 BKN033 14/11 Q1017 NOSIG RMK BLU BLU
  • 162150Z 21010KT 9999 FEW022 BKN032 15/11 Q1017 NOSIG RMK BLU BLU
  • 162120Z 21011KT 9999 FEW026 BKN034 15/11 Q1016 NOSIG RMK BLU BLU
  • 162050Z 21009KT 9999 FEW024 BKN036 15/11 Q1016 TEMPO SCT024 RMK BLU TEMPO WHT

TAF TAF EGVN
Valide du 16 à 21h jusqu'au 17 à 21h UTC


161937Z 1621/1721 20009KT 9999 BKN030
PROB30
TEMPO 1621/1707 SCT014
PROB30
TEMPO 1707/1709 SCT020
Pas de NOTAMs connus pour ce terrain.
2 SIGMETs publiés pour la FIR London (EGTT) :
 
Onde orographique forte
EGTT SIGMET 02 VALID 162330/170330 EGRR
EGTT LONDON FIR SEV MTW FCST WI N5435 W00303 - N5442 W00123 - N5309 W00024 - N5143 W00420 - N5315 W00408 - N5435 W00303 FL030/180 STNR NC=
Onde orographique forte
EGTT SIGMET 01 VALID 162010/162330 EGRR
EGTT LONDON FIR SEV MTW FCST WI N5444 W00114 - N5306 W00010 - N5156 W00445 - N5438 W00305 - N5444 W00114 FL030/180 STNR NC=



MET'MAP, la Météo Aéronautique d'un coup d'oeil ! - Copyright ORBIFLY Décembre 2007 - Disclaimer

ORBIFLY MET'MAP TEAM :

Programmation & Développement : Alexandra Zaïnal
Conception & Développement : Baudouin d'Aumeries
Co-Programmation & Développement : Marc-Olivier Méhu
Soutien technique & logistique : Manuel Goepfert

Contact : metmap@orbifly.com




SOURCES & CREDITS :

   NOAA